createdAt,value
2022-11-26T00:03:46.015Z,1009.66
2022-11-26T00:08:45.961Z,1009.75
2022-11-26T00:13:45.897Z,1009.78
2022-11-26T00:18:45.797Z,1009.84
2022-11-26T00:23:45.823Z,1009.87
2022-11-26T00:28:45.699Z,1009.94
2022-11-26T00:33:45.747Z,1010.02
2022-11-26T00:38:45.561Z,1010.06
2022-11-26T00:43:46.542Z,1010.12
2022-11-26T00:48:45.499Z,1010.16
2022-11-26T00:53:45.463Z,1010.21
2022-11-26T00:58:54.254Z,1010.23
2022-11-26T01:03:45.294Z,1010.38
2022-11-26T01:08:45.224Z,1010.47
2022-11-26T01:13:45.201Z,1010.59
2022-11-26T01:18:45.115Z,1010.55
2022-11-26T01:23:45.091Z,1010.64
2022-11-26T01:28:45.013Z,1010.70
2022-11-26T01:33:44.960Z,1010.71
2022-11-26T01:38:44.912Z,1010.78
2022-11-26T01:43:44.840Z,1010.81
2022-11-26T01:48:44.781Z,1010.78
2022-11-26T01:53:44.846Z,1010.78
2022-11-26T01:58:47.124Z,1010.80
2022-11-26T02:03:44.743Z,1010.77
2022-11-26T02:08:44.653Z,1010.84
2022-11-26T02:13:44.612Z,1010.86
2022-11-26T02:18:44.501Z,1010.84
2022-11-26T02:23:44.439Z,1010.86
2022-11-26T02:28:44.380Z,1010.89
2022-11-26T02:33:44.336Z,1010.87
2022-11-26T02:38:44.240Z,1010.81
2022-11-26T02:43:44.216Z,1010.82
2022-11-26T02:48:44.156Z,1010.88
2022-11-26T02:53:44.077Z,1010.79
2022-11-26T02:58:44.065Z,1010.72
2022-11-26T03:03:44.009Z,1010.73
2022-11-26T03:08:44.069Z,1010.69
2022-11-26T03:13:43.992Z,1010.69
2022-11-26T03:18:44.025Z,1010.75
2022-11-26T03:23:43.790Z,1010.89
2022-11-26T03:28:43.730Z,1010.95
2022-11-26T03:33:43.680Z,1010.93
2022-11-26T03:38:43.590Z,1010.90
2022-11-26T03:43:43.567Z,1011.03
2022-11-26T03:48:43.585Z,1011.11
2022-11-26T03:53:43.430Z,1011.12
2022-11-26T03:58:43.540Z,1011.20
2022-11-26T04:03:43.353Z,1011.20
2022-11-26T04:08:43.282Z,1011.32
2022-11-26T04:13:43.372Z,1011.48
2022-11-26T04:18:43.165Z,1011.61
2022-11-26T04:23:43.150Z,1011.64
2022-11-26T04:28:43.053Z,1011.65
2022-11-26T04:33:43.002Z,1011.66
2022-11-26T04:38:43.181Z,1011.74
2022-11-26T04:43:42.912Z,1011.88
2022-11-26T04:48:42.947Z,1011.94
2022-11-26T04:53:42.799Z,1011.99
2022-11-26T04:58:42.729Z,1012.06
2022-11-26T05:03:42.779Z,1012.12
2022-11-26T05:08:42.663Z,1012.15
2022-11-26T05:13:42.592Z,1012.24
2022-11-26T05:18:42.532Z,1012.19
2022-11-26T05:23:42.485Z,1012.16
2022-11-26T05:28:42.580Z,1012.09
2022-11-26T05:33:42.380Z,1012.21
2022-11-26T05:38:42.311Z,1012.23
2022-11-26T05:43:42.242Z,1012.31
2022-11-26T05:48:42.346Z,1012.25
2022-11-26T05:53:42.275Z,1012.34
2022-11-26T05:58:42.324Z,1012.48
2022-11-26T06:03:42.135Z,1012.44
2022-11-26T06:08:42.016Z,1012.46
2022-11-26T06:13:41.962Z,1012.56
2022-11-26T06:18:41.911Z,1012.47
2022-11-26T06:23:49.633Z,1012.54
2022-11-26T06:28:42.819Z,1012.48
2022-11-26T06:33:41.865Z,1012.51
2022-11-26T06:38:41.677Z,1012.67
2022-11-26T06:43:41.766Z,1012.68
2022-11-26T06:48:42.710Z,1012.66
2022-11-26T06:53:41.648Z,1012.80
2022-11-26T06:58:41.450Z,1012.86
2022-11-26T07:03:41.408Z,1012.83
2022-11-26T07:08:41.370Z,1012.82
2022-11-26T07:13:41.294Z,1012.86
2022-11-26T07:18:50.145Z,1012.91
2022-11-26T07:23:41.285Z,1012.93
2022-11-26T07:28:41.267Z,1012.99
2022-11-26T07:33:41.912Z,1013.07
2022-11-26T07:47:14.209Z,1013.21
2022-11-26T07:52:14.252Z,1013.22
2022-11-26T07:57:14.219Z,1013.31
2022-11-26T08:02:14.164Z,1013.33
2022-11-26T08:07:21.887Z,1013.32
2022-11-26T08:12:14.922Z,1013.34
2022-11-26T08:17:13.909Z,1013.29
2022-11-26T08:22:13.846Z,1013.30
2022-11-26T08:27:13.802Z,1013.35
2022-11-26T08:32:18.659Z,1013.35
2022-11-26T08:38:25.411Z,1013.37
2022-11-26T08:43:45.026Z,1013.45
2022-11-26T08:48:59.276Z,1013.54
2022-11-26T08:53:26.127Z,1013.55
2022-11-26T08:58:26.747Z,1013.57
2022-11-26T09:03:25.146Z,1013.62
2022-11-26T09:08:25.527Z,1013.53
2022-11-26T09:13:25.044Z,1013.53
2022-11-26T09:18:24.838Z,1013.57
2022-11-26T09:23:24.726Z,1013.64
2022-11-26T09:28:24.910Z,1013.65
2022-11-26T09:33:24.773Z,1013.68
2022-11-26T09:38:24.647Z,1013.70
2022-11-26T09:43:24.504Z,1013.62
2022-11-26T09:48:24.701Z,1013.64
2022-11-26T09:53:24.562Z,1013.64
2022-11-26T09:58:27.288Z,1013.66
2022-11-26T10:03:24.396Z,1013.69
2022-11-26T10:08:24.341Z,1013.66
2022-11-26T10:13:24.330Z,1013.63
2022-11-26T10:18:24.451Z,1013.51
2022-11-26T10:23:25.142Z,1013.64
2022-11-26T10:28:24.164Z,1013.63
2022-11-26T10:33:24.035Z,1013.56
2022-11-26T10:38:24.340Z,1013.54
2022-11-26T10:43:25.969Z,1013.66
2022-11-26T10:48:23.945Z,1013.59
2022-11-26T10:53:23.875Z,1013.62
2022-11-26T10:58:23.840Z,1013.59
2022-11-26T11:03:38.577Z,1013.48
2022-11-26T11:08:24.607Z,1013.50
2022-11-26T11:13:23.661Z,1013.36
2022-11-26T11:18:23.668Z,1013.33
2022-11-26T11:23:35.034Z,1013.29
2022-11-26T11:28:24.428Z,1013.21
2022-11-26T11:33:23.382Z,1013.21
2022-11-26T11:38:24.253Z,1013.20
2022-11-26T11:43:23.288Z,1013.20
2022-11-26T11:48:23.222Z,1013.20
2022-11-26T11:53:23.216Z,1013.28
2022-11-26T11:58:23.122Z,1013.16
2022-11-26T12:03:23.113Z,1013.22
2022-11-26T12:08:23.149Z,1013.24
2022-11-26T12:13:22.984Z,1013.30
2022-11-26T12:18:22.933Z,1013.20
2022-11-26T12:23:24.793Z,1013.19
2022-11-26T12:28:22.859Z,1013.18
2022-11-26T12:33:22.977Z,1013.17
2022-11-26T12:38:22.769Z,1013.27
2022-11-26T12:43:22.854Z,1013.27
2022-11-26T12:48:22.581Z,1013.26
2022-11-26T12:53:22.641Z,1013.27
2022-11-26T12:58:22.662Z,1013.29
2022-11-26T13:03:22.482Z,1013.28
2022-11-26T13:08:22.370Z,1013.22
2022-11-26T13:13:22.412Z,1013.19
2022-11-26T13:18:22.295Z,1013.22
2022-11-26T13:23:23.312Z,1013.24
2022-11-26T13:28:22.197Z,1013.20
2022-11-26T13:33:22.138Z,1013.16
2022-11-26T13:38:22.053Z,1013.14
2022-11-26T13:43:21.987Z,1013.14
2022-11-26T13:48:21.887Z,1013.06
2022-11-26T13:53:26.550Z,1013.02
2022-11-26T13:58:22.842Z,1012.96
2022-11-26T14:03:21.785Z,1012.89
2022-11-26T14:08:21.734Z,1012.81
2022-11-26T14:13:21.820Z,1012.77
2022-11-26T14:18:21.657Z,1012.76
2022-11-26T14:23:21.496Z,1012.77
2022-11-26T14:28:21.480Z,1012.69
2022-11-26T14:33:21.463Z,1012.63
2022-11-26T14:38:21.623Z,1012.63
2022-11-26T14:43:22.576Z,1012.60
2022-11-26T14:48:21.393Z,1012.64
2022-11-26T14:53:21.416Z,1012.69
2022-11-26T14:58:21.212Z,1012.67
2022-11-26T15:03:21.299Z,1012.59
2022-11-26T15:08:21.175Z,1012.68
2022-11-26T15:13:21.156Z,1012.75
2022-11-26T15:18:21.136Z,1012.76
2022-11-26T15:23:24.234Z,1012.73
2022-11-26T15:29:32.074Z,1012.77
2022-11-26T15:34:32.077Z,1012.83
2022-11-26T15:39:32.129Z,1012.87
2022-11-26T15:44:32.001Z,1012.85
2022-11-26T15:49:31.899Z,1012.87
2022-11-26T15:54:49.698Z,1012.82
2022-11-26T15:59:32.798Z,1012.87
2022-11-26T16:04:31.725Z,1012.82
2022-11-26T16:09:31.686Z,1012.84
2022-11-26T16:14:31.636Z,1012.90
2022-11-26T16:19:31.667Z,1012.86
2022-11-26T16:24:31.598Z,1012.74
2022-11-26T16:29:31.459Z,1012.72
2022-11-26T16:34:31.409Z,1012.73
2022-11-26T16:39:33.793Z,1012.77
2022-11-26T16:44:32.369Z,1012.72
2022-11-26T16:49:31.295Z,1012.75
2022-11-26T16:54:31.230Z,1012.73
2022-11-26T16:59:31.103Z,1012.72
2022-11-26T17:04:31.061Z,1012.82
2022-11-26T17:09:31.139Z,1012.86
2022-11-26T17:14:30.951Z,1012.89
2022-11-26T17:19:30.996Z,1012.99
2022-11-26T17:24:31.680Z,1013.02
2022-11-26T17:29:30.800Z,1012.95
2022-11-26T17:34:30.774Z,1013.02
2022-11-26T17:39:30.716Z,1012.92
2022-11-26T17:44:30.761Z,1012.89
2022-11-26T17:49:30.656Z,1012.95
2022-11-26T17:54:30.608Z,1012.86
2022-11-26T17:59:30.669Z,1012.76
2022-11-26T18:04:30.452Z,1012.69
2022-11-26T18:09:30.420Z,1012.62
2022-11-26T18:14:30.314Z,1012.68
2022-11-26T18:19:30.365Z,1012.61
2022-11-26T18:24:30.289Z,1012.53
2022-11-26T18:29:30.206Z,1012.51
2022-11-26T18:34:30.108Z,1012.55
2022-11-26T18:39:30.038Z,1012.55
2022-11-26T18:44:30.053Z,1012.54
2022-11-26T18:49:29.964Z,1012.60
2022-11-26T18:54:29.903Z,1012.62
2022-11-26T18:59:29.816Z,1012.48
2022-11-26T19:04:29.791Z,1012.51
2022-11-26T19:09:29.778Z,1012.50
2022-11-26T19:14:29.724Z,1012.42
2022-11-26T19:19:29.789Z,1012.41
2022-11-26T19:24:29.597Z,1012.40
2022-11-26T19:29:29.530Z,1012.40
2022-11-26T19:34:29.496Z,1012.34
2022-11-26T19:39:29.414Z,1012.28
2022-11-26T19:44:29.328Z,1012.31
2022-11-26T19:49:29.348Z,1012.28
2022-11-26T19:54:29.315Z,1012.19
2022-11-26T19:59:29.186Z,1012.31
2022-11-26T20:04:29.142Z,1012.30
2022-11-26T20:09:29.125Z,1012.21
2022-11-26T20:14:29.060Z,1012.18
2022-11-26T20:19:29.074Z,1012.26
2022-11-26T20:24:28.919Z,1012.24
2022-11-26T20:29:28.942Z,1012.28
2022-11-26T20:34:28.918Z,1012.38
2022-11-26T20:39:28.913Z,1012.50
2022-11-26T20:44:28.727Z,1012.42
2022-11-26T20:49:33.709Z,1012.58
2022-11-26T20:54:29.761Z,1012.55
2022-11-26T20:59:28.524Z,1012.61
2022-11-26T21:04:28.517Z,1012.51
2022-11-26T21:09:28.443Z,1012.51
2022-11-26T21:14:28.374Z,1012.45
2022-11-26T21:19:28.368Z,1012.50
2022-11-26T21:24:28.338Z,1012.51
2022-11-26T21:29:28.232Z,1012.45
2022-11-26T21:34:28.176Z,1012.40
2022-11-26T21:39:28.199Z,1012.29
2022-11-26T21:44:28.060Z,1012.24
2022-11-26T21:49:28.010Z,1012.17
2022-11-26T21:54:27.953Z,1012.14
2022-11-26T21:59:27.855Z,1012.09
2022-11-26T22:04:27.877Z,1011.87
2022-11-26T22:09:27.753Z,1011.70
2022-11-26T22:14:27.761Z,1011.55
2022-11-26T22:19:27.771Z,1011.48
2022-11-26T22:24:27.728Z,1011.40
2022-11-26T22:29:27.548Z,1011.34
2022-11-26T22:34:27.479Z,1011.27
2022-11-26T22:39:27.455Z,1011.25
2022-11-26T22:44:27.382Z,1011.27
2022-11-26T22:49:27.318Z,1011.22
2022-11-26T22:54:27.301Z,1011.14
2022-11-26T22:59:27.242Z,1011.16
2022-11-26T23:04:27.298Z,1011.12
2022-11-26T23:09:27.120Z,1011.15
2022-11-26T23:14:27.069Z,1011.22
2022-11-26T23:19:26.992Z,1011.19
2022-11-26T23:24:26.970Z,1011.16
2022-11-26T23:29:26.907Z,1011.02
2022-11-26T23:34:26.858Z,1010.97
2022-11-26T23:39:26.796Z,1010.81
2022-11-26T23:44:26.847Z,1010.84
2022-11-26T23:49:26.668Z,1010.64
2022-11-26T23:54:26.632Z,1010.64
2022-11-26T23:59:26.616Z,1010.53
